Time;durP1;ratioP1;P1;durP2;ratioP2;P2;SDS_P1;SDS_P2;PMS_P1;PMS_P2;Temp;Humidity;BMP_temperature;BMP_pressure;BME280_temperature;BME280_humidity;BME280_pressure;Samples;Min_cycle;Max_cycle;Signal;HPM_P1;HPM_P2
2023/04/22 00:00:11;;;;;;;14.50;4.30;;;;;;;9.27;100.00;99993.21;106018;1253;72421;-85
2023/04/22 00:02:38;;;;;;;10.90;3.70;;;;;;;9.24;100.00;99998.92;105993;1252;62873;-88
2023/04/22 00:05:06;;;;;;;5.10;3.50;;;;;;;9.24;100.00;99997.89;105881;1257;60357;-89
2023/04/22 00:07:33;;;;;;;9.20;3.30;;;;;;;9.25;100.00;100001.14;105906;1253;75108;-86
2023/04/22 00:10:00;;;;;;;5.80;2.90;;;;;;;9.24;100.00;100002.09;105677;1255;63819;-86
2023/04/22 00:12:27;;;;;;;7.70;3.40;;;;;;;9.21;100.00;100004.93;105926;1260;72696;-88
2023/04/22 00:14:54;;;;;;;9.10;3.60;;;;;;;9.17;100.00;100005.16;105984;1257;61389;-88
2023/04/22 00:17:21;;;;;;;10.30;3.80;;;;;;;9.13;100.00;100008.55;105880;1254;60383;-87
2023/04/22 00:19:48;;;;;;;9.00;4.00;;;;;;;9.09;100.00;100009.16;105829;1253;75414;-86
2023/04/22 00:22:15;;;;;;;6.70;3.00;;;;;;;9.03;100.00;100011.66;105867;1256;64752;-88
2023/04/22 00:24:42;;;;;;;10.50;4.10;;;;;;;8.95;100.00;100011.07;105902;1258;73479;-87
2023/04/22 00:27:09;;;;;;;13.20;4.20;;;;;;;8.87;100.00;100012.80;105795;1260;63547;-86
2023/04/22 00:29:36;;;;;;;8.10;3.70;;;;;;;8.83;100.00;100008.54;105942;1260;60434;-84
2023/04/22 00:32:03;;;;;;;6.20;3.30;;;;;;;8.81;100.00;100007.46;105917;1256;74839;-87
2023/04/22 00:34:34;;;;;;;8.40;3.60;;;;;;;8.82;100.00;100010.20;106801;1252;64896;-85
2023/04/22 00:37:01;;;;;;;10.20;3.50;;;;;;;8.84;100.00;100006.71;106612;1257;72698;-86
2023/04/22 00:39:27;;;;;;;12.20;3.90;;;;;;;8.88;100.00;100010.46;107795;1254;61649;-85
2023/04/22 00:41:57;;;;;;;4.80;3.20;;;;;;;8.91;100.00;100008.70;108279;1254;60453;-84
2023/04/22 00:44:24;;;;;;;7.40;4.20;;;;;;;8.94;100.00;100011.54;106676;1255;75162;-85
2023/04/22 00:46:51;;;;;;;9.20;3.60;;;;;;;8.95;100.00;100017.73;105917;1258;63814;-87
2023/04/22 00:49:18;;;;;;;9.10;4.10;;;;;;;8.96;100.00;100014.02;105790;1258;73744;-87
2023/04/22 00:51:45;;;;;;;8.90;3.60;;;;;;;8.95;100.00;100018.24;105932;1254;62778;-86
2023/04/22 00:54:12;;;;;;;9.50;4.90;;;;;;;8.93;100.00;100018.17;105945;1254;61088;-87
2023/04/22 00:56:39;;;;;;;10.30;5.70;;;;;;;8.94;100.00;100020.59;105827;1254;74330;-87
2023/04/22 00:59:07;;;;;;;7.10;4.70;;;;;;;8.95;100.00;100021.36;105814;1259;63522;-89
2023/04/22 01:01:36;;;;;;;10.20;4.50;;;;;;;8.96;100.00;100019.92;105827;1267;73640;-85
2023/04/22 01:04:03;;;;;;;12.40;4.60;;;;;;;8.95;100.00;100022.80;105924;1256;63176;-86
2023/04/22 01:06:31;;;;;;;5.90;3.80;;;;;;;8.93;100.00;100023.73;106131;1253;60440;-85
2023/04/22 01:08:58;;;;;;;8.90;4.20;;;;;;;8.96;100.00;100022.92;105985;1258;74731;-86
2023/04/22 01:11:25;;;;;;;5.00;4.20;;;;;;;8.95;100.00;100022.27;106180;1254;63978;-87
2023/04/22 01:13:51;;;;;;;8.90;5.20;;;;;;;8.96;100.00;100022.40;106203;1257;73421;-87
2023/04/22 01:16:19;;;;;;;9.20;4.70;;;;;;;8.97;100.00;100022.65;106072;1259;62861;-87
2023/04/22 01:18:46;;;;;;;9.80;4.60;;;;;;;8.96;100.00;100025.02;106054;1257;61256;-88
2023/04/22 01:21:13;;;;;;;6.00;4.20;;;;;;;8.95;100.00;100021.77;106022;1260;73780;-87
2023/04/22 01:23:39;;;;;;;9.90;4.30;;;;;;;8.91;100.00;100020.95;106055;1257;64808;-85
2023/04/22 01:26:07;;;;;;;7.10;4.20;;;;;;;8.86;100.00;100023.33;105708;1254;73388;-87
2023/04/22 01:28:34;;;;;;;9.30;4.20;;;;;;;8.81;100.00;100019.80;106084;1260;61968;-86
2023/04/22 01:31:00;;;;;;;11.40;5.20;;;;;;;8.78;100.00;100022.77;106061;1257;61320;-86
2023/04/22 01:33:29;;;;;;;10.80;5.20;;;;;;;8.73;100.00;100023.61;107710;1257;74607;-87
2023/04/22 01:35:57;;;;;;;6.30;4.30;;;;;;;8.69;100.00;100024.02;106830;1257;63339;-88
2023/04/22 01:38:24;;;;;;;7.40;4.70;;;;;;;8.67;100.00;100022.55;107002;1257;72493;-87
2023/04/22 01:40:51;;;;;;;6.80;5.20;;;;;;;8.70;100.00;100022.04;108445;1253;62651;-86
2023/04/22 01:43:18;;;;;;;7.50;4.20;;;;;;;8.70;100.00;100021.86;107168;1257;60377;-87
2023/04/22 01:45:45;;;;;;;10.60;4.60;;;;;;;8.72;100.00;100021.78;107173;1255;74771;-86
2023/04/22 01:48:12;;;;;;;6.10;4.40;;;;;;;8.71;100.00;100015.38;107043;1254;64817;-85
2023/04/22 01:50:39;;;;;;;9.80;4.60;;;;;;;8.70;100.00;100019.23;105990;1259;73608;-90
2023/04/22 01:53:07;;;;;;;7.30;4.30;;;;;;;8.69;100.00;100017.23;106075;1260;61789;-92
2023/04/22 01:55:34;;;;;;;7.30;4.70;;;;;;;8.67;100.00;100016.81;106096;1256;61215;-86
2023/04/22 01:58:02;;;;;;;9.80;5.40;;;;;;;8.66;100.00;100018.45;105997;1257;73809;-87
2023/04/22 02:00:30;;;;;;;8.60;4.20;;;;;;;8.66;100.00;100018.95;106517;1257;64766;-85
2023/04/22 02:02:57;;;;;;;13.60;6.20;;;;;;;8.67;100.00;100021.73;108207;1254;73822;-87
2023/04/22 02:05:25;;;;;;;6.00;4.60;;;;;;;8.67;100.00;100017.70;107623;1254;61951;-87
2023/04/22 02:07:52;;;;;;;10.60;5.00;;;;;;;8.68;100.00;100021.31;106325;1254;60774;-87
2023/04/22 02:10:19;;;;;;;11.50;4.60;;;;;;;8.69;100.00;100021.42;105892;1257;73755;-89
2023/04/22 02:12:46;;;;;;;9.80;4.40;;;;;;;8.69;100.00;100024.89;106006;1258;63621;-88
2023/04/22 02:15:14;;;;;;;7.10;4.00;;;;;;;8.71;100.00;100026.02;106008;1257;72619;-89
2023/04/22 02:17:42;;;;;;;9.40;4.30;;;;;;;8.75;100.00;100026.29;106011;1265;61834;-88
2023/04/22 02:20:12;;;;;;;9.80;4.50;;;;;;;8.76;100.00;100028.15;105832;1255;61320;-88
2023/04/22 02:22:41;;;;;;;8.40;4.40;;;;;;;8.76;100.00;100028.54;105761;1258;74612;-89
2023/04/22 02:25:09;;;;;;;7.40;4.30;;;;;;;8.72;100.00;100026.64;105944;1255;63367;-88
2023/04/22 02:27:36;;;;;;;7.30;4.70;;;;;;;8.72;100.00;100028.23;105994;1257;72495;-88
2023/04/22 02:30:04;;;;;;;8.30;4.70;;;;;;;8.71;100.00;100029.85;105868;1255;61857;-86
2023/04/22 02:32:32;;;;;;;5.90;4.40;;;;;;;8.68;100.00;100027.55;105888;1255;61154;-87
2023/04/22 02:35:00;;;;;;;11.10;4.90;;;;;;;8.65;100.00;100027.27;105868;1260;73813;-88
2023/04/22 02:37:28;;;;;;;15.40;5.50;;;;;;;8.63;100.00;100025.46;105877;1257;63644;-89
2023/04/22 02:39:54;;;;;;;8.00;3.90;;;;;;;8.63;100.00;100030.34;106901;1254;71857;-89
2023/04/22 02:42:21;;;;;;;9.10;6.10;;;;;;;8.65;100.00;100031.09;107186;1254;61663;-85
2023/04/22 02:44:48;;;;;;;9.60;4.70;;;;;;;8.68;100.00;100033.66;108268;1257;60434;-87
2023/04/22 02:47:15;;;;;;;5.80;4.30;;;;;;;8.71;100.00;100034.73;106418;1254;73828;-86
2023/04/22 02:49:42;;;;;;;10.00;5.10;;;;;;;8.70;100.00;100033.91;106027;1254;64022;-87
2023/04/22 02:52:09;;;;;;;11.70;5.30;;;;;;;8.72;100.00;100037.11;105935;1257;73590;-87
2023/04/22 02:54:36;;;;;;;11.30;6.00;;;;;;;8.73;100.00;100036.86;105894;1254;63144;-87
2023/04/22 02:57:03;;;;;;;11.00;5.50;;;;;;;8.76;100.00;100040.33;105892;1254;60480;-86
2023/04/22 02:59:30;;;;;;;6.90;4.90;;;;;;;8.80;100.00;100043.94;106346;1257;75163;-85
2023/04/22 03:01:58;;;;;;;11.00;5.40;;;;;;;8.80;100.00;100045.15;106918;1254;64570;-84
2023/04/22 03:04:48;;;;;;;8.00;5.30;;;;;;;8.79;100.00;100047.31;106147;1256;73604;-89
2023/04/22 03:07:15;;;;;;;7.80;4.80;;;;;;;8.76;100.00;100047.84;105692;1254;62830;-89
2023/04/22 03:09:42;;;;;;;8.10;4.90;;;;;;;8.76;100.00;100052.06;105895;1258;60354;-87
2023/04/22 03:12:09;;;;;;;10.20;5.20;;;;;;;8.76;100.00;100053.10;105888;1254;73856;-88
2023/04/22 03:14:37;;;;;;;9.40;4.80;;;;;;;8.73;100.00;100056.73;106115;1257;64716;-88
2023/04/22 03:17:04;;;;;;;11.70;5.80;;;;;;;8.73;100.00;100057.25;105929;1254;72528;-89
2023/04/22 03:19:31;;;;;;;11.20;5.20;;;;;;;8.75;100.00;100059.09;105980;1255;62781;-88
2023/04/22 03:21:58;;;;;;;9.20;5.30;;;;;;;8.76;100.00;100063.52;106109;1257;60399;-85
2023/04/22 03:24:25;;;;;;;9.40;5.40;;;;;;;8.78;100.00;100067.77;106065;1253;74691;-88
2023/04/22 03:26:52;;;;;;;11.30;6.00;;;;;;;8.81;100.00;100066.49;106070;1257;62256;-87
2023/04/22 03:29:21;;;;;;;12.20;5.00;;;;;;;8.85;100.00;100074.81;106076;1254;73620;-88
2023/04/22 03:31:48;;;;;;;7.10;4.80;;;;;;;8.90;100.00;100077.48;106123;1257;62734;-87
2023/04/22 03:34:18;;;;;;;12.70;7.60;;;;;;;8.96;100.00;100080.09;106254;1252;61637;-89
2023/04/22 03:36:46;;;;;;;9.20;5.80;;;;;;;8.98;100.00;100079.60;106076;1254;73361;-89
2023/04/22 03:39:12;;;;;;;15.60;5.90;;;;;;;9.03;100.00;100086.29;106144;1254;63615;-88
2023/04/22 03:41:40;;;;;;;7.70;4.80;;;;;;;9.06;100.00;100086.41;106179;1254;72674;-87
2023/04/22 03:44:07;;;;;;;10.30;5.30;;;;;;;9.08;100.00;100091.49;106430;1254;62838;-86
2023/04/22 03:46:34;;;;;;;8.30;4.60;;;;;;;9.09;100.00;100092.52;108560;1253;61544;-85
2023/04/22 03:49:10;;;;;;;11.30;5.10;;;;;;;9.07;100.00;100091.08;106261;1258;74932;-87
2023/04/22 03:51:37;;;;;;;10.00;4.40;;;;;;;9.04;100.00;100097.85;106132;1254;63729;-88
2023/04/22 03:54:08;;;;;;;8.70;4.70;;;;;;;9.02;100.00;100104.98;105831;1254;72498;-88
2023/04/22 03:56:37;;;;;;;11.90;4.80;;;;;;;9.02;100.00;100102.56;105973;1253;63877;-89
2023/04/22 03:59:04;;;;;;;10.60;4.20;;;;;;;9.06;100.00;100102.10;106087;1257;60626;-92
2023/04/22 04:01:32;;;;;;;11.10;6.20;;;;;;;9.09;100.00;100106.09;106168;1256;74906;-88
2023/04/22 04:04:02;;;;;;;12.50;4.60;;;;;;;9.09;100.00;100107.00;105985;1254;64547;-86
2023/04/22 04:06:38;;;;;;;8.50;3.90;;;;;;;9.09;100.00;100110.82;106021;1253;73549;-89
2023/04/22 04:09:07;;;;;;;7.50;4.70;;;;;;;9.08;100.00;100114.21;105952;1253;63010;-87
2023/04/22 04:11:35;;;;;;;6.90;4.00;;;;;;;9.05;100.00;100114.23;106053;1253;61088;-89
2023/04/22 04:14:02;;;;;;;10.30;4.50;;;;;;;9.04;100.00;100118.29;106084;1254;73995;-88
2023/04/22 04:16:41;;;;;;;12.60;4.60;;;;;;;9.04;100.00;100120.88;106015;1257;64730;-88
2023/04/22 04:19:12;;;;;;;8.70;4.30;;;;;;;9.06;100.00;100118.68;106051;1255;73442;-87
2023/04/22 04:21:41;;;;;;;7.10;4.20;;;;;;;9.06;100.00;100122.84;106343;1253;61838;-87
2023/04/22 04:24:19;;;;;;;8.20;4.50;;;;;;;9.08;100.00;100124.84;107656;1254;61996;-90
2023/04/22 04:26:48;;;;;;;11.30;4.60;;;;;;;9.09;100.00;100128.94;106713;1257;74176;-89
2023/04/22 04:29:19;;;;;;;7.60;4.00;;;;;;;9.11;100.00;100128.29;106113;1257;63805;-87
2023/04/22 04:31:51;;;;;;;8.70;4.30;;;;;;;9.15;100.00;100131.92;106154;1253;73583;-88
2023/04/22 04:34:18;;;;;;;10.70;4.40;;;;;;;9.20;100.00;100134.39;106189;1260;63064;-87
2023/04/22 04:36:45;;;;;;;10.80;5.20;;;;;;;9.22;100.00;100132.91;106271;1254;62207;-86
2023/04/22 04:39:19;;;;;;;10.60;4.40;;;;;;;9.20;100.00;100138.58;106095;1254;73796;-88
2023/04/22 04:41:47;;;;;;;11.90;4.50;;;;;;;9.18;100.00;100140.63;106114;1252;64030;-85
2023/04/22 04:44:16;;;;;;;8.40;5.10;;;;;;;9.16;100.00;100140.42;106465;1256;72619;-85
2023/04/22 04:46:43;;;;;;;12.40;4.40;;;;;;;9.14;100.00;100140.70;106715;1254;63756;-85
2023/04/22 04:49:11;;;;;;;11.80;5.80;;;;;;;9.13;100.00;100146.16;107394;1254;61240;-86
2023/04/22 04:51:48;;;;;;;16.00;5.20;;;;;;;9.12;100.00;100143.73;107214;1253;73624;-85
2023/04/22 04:54:15;;;;;;;9.70;5.30;;;;;;;9.15;100.00;100147.78;106858;1254;62819;-89
2023/04/22 04:56:43;;;;;;;8.70;5.40;;;;;;;9.19;100.00;100149.44;107713;1254;73449;-88
2023/04/22 04:59:10;;;;;;;14.30;6.30;;;;;;;9.23;100.00;100150.39;108025;1252;61793;-85
2023/04/22 05:01:38;;;;;;;9.30;4.50;;;;;;;9.27;100.00;100156.08;106523;1257;60418;-87
2023/04/22 05:04:07;;;;;;;11.70;5.10;;;;;;;9.25;100.00;100154.97;106612;1254;73743;-87
2023/04/22 05:06:37;;;;;;;13.10;5.30;;;;;;;9.27;100.00;100161.00;106279;1256;64786;-88
2023/04/22 05:09:07;;;;;;;16.80;5.20;;;;;;;9.29;100.00;100161.05;105995;1254;72620;-88
2023/04/22 05:11:34;;;;;;;10.10;5.20;;;;;;;9.27;100.00;100162.05;105993;1257;61277;-87
2023/04/22 05:14:02;;;;;;;13.20;5.70;;;;;;;9.23;100.00;100161.56;106098;1256;60560;-87
2023/04/22 05:16:33;;;;;;;12.70;7.00;;;;;;;9.21;100.00;100163.80;107751;1253;74878;-86
2023/04/22 05:19:01;;;;;;;7.60;5.50;;;;;;;9.19;100.00;100164.43;106052;1253;64799;-86
2023/04/22 05:21:28;;;;;;;9.00;5.30;;;;;;;9.19;100.00;100167.11;105966;1257;73717;-85
2023/04/22 05:23:55;;;;;;;13.60;6.60;;;;;;;9.20;100.00;100164.92;105906;1253;62939;-86
2023/04/22 05:26:23;;;;;;;7.70;5.60;;;;;;;9.24;100.00;100168.69;105984;1254;61001;-87
2023/04/22 05:28:50;;;;;;;13.40;5.60;;;;;;;9.29;100.00;100167.48;105900;1253;74238;-88
2023/04/22 05:31:18;;;;;;;12.40;4.80;;;;;;;9.37;100.00;100171.71;106130;1254;64322;-87
2023/04/22 05:33:46;;;;;;;11.20;4.80;;;;;;;9.43;100.00;100174.14;106229;1256;72008;-90
2023/04/22 05:36:13;;;;;;;11.80;5.50;;;;;;;9.47;100.00;100173.18;105996;1254;62239;-88
2023/04/22 05:38:40;;;;;;;10.20;4.80;;;;;;;9.52;100.00;100174.57;106171;1254;61279;-87
2023/04/22 05:41:07;;;;;;;10.50;5.70;;;;;;;9.58;100.00;100180.53;106122;1256;74822;-89
2023/04/22 05:43:35;;;;;;;9.10;4.70;;;;;;;9.65;100.00;100180.41;106330;1254;65303;-90
2023/04/22 05:46:12;;;;;;;18.60;5.70;;;;;;;9.70;100.00;100182.36;106254;1256;73537;-88
2023/04/22 05:48:40;;;;;;;9.60;5.40;;;;;;;9.73;100.00;100184.45;106323;1254;61685;-88
2023/04/22 05:51:09;;;;;;;13.30;5.90;;;;;;;9.76;100.00;100182.52;107254;1253;60552;-85
2023/04/22 05:53:37;;;;;;;12.90;6.30;;;;;;;9.79;100.00;100184.23;106728;1254;73549;-88
2023/04/22 05:56:05;;;;;;;7.00;6.20;;;;;;;9.80;100.00;100182.46;106698;1257;65116;-87
2023/04/22 05:58:33;;;;;;;10.50;5.40;;;;;;;9.79;100.00;100183.77;106146;1253;71455;-88
2023/04/22 06:01:08;;;;;;;15.10;7.00;;;;;;;9.81;100.00;100183.09;106071;1257;63147;-88
2023/04/22 06:03:48;;;;;;;14.40;6.00;;;;;;;9.84;100.00;100188.62;106203;1252;60351;-89
2023/04/22 06:06:16;;;;;;;10.30;6.10;;;;;;;9.88;100.00;100191.52;106167;1254;74958;-87
2023/04/22 06:08:45;;;;;;;10.30;4.60;;;;;;;9.94;100.00;100192.36;108437;1253;63746;-86
2023/04/22 06:11:12;;;;;;;11.70;5.80;;;;;;;10.01;100.00;100193.70;108201;1253;72594;-87
2023/04/22 06:13:39;;;;;;;9.90;4.70;;;;;;;10.05;100.00;100192.88;106432;1258;62030;-87
2023/04/22 06:16:06;;;;;;;8.30;4.80;;;;;;;10.09;100.00;100194.93;106209;1257;60553;-87
2023/04/22 06:18:38;;;;;;;9.40;5.40;;;;;;;10.14;100.00;100194.73;105999;1259;74012;-87
2023/04/22 06:21:08;;;;;;;12.90;6.00;;;;;;;10.23;100.00;100194.67;106194;1257;63763;-87
2023/04/22 06:23:35;;;;;;;10.90;5.50;;;;;;;10.30;100.00;100197.26;105941;1257;73608;-90
2023/04/22 06:26:02;;;;;;;10.70;5.00;;;;;;;10.31;100.00;100202.23;106077;1253;62957;-87
2023/04/22 06:28:29;;;;;;;10.80;5.70;;;;;;;10.27;100.00;100205.93;105958;1257;60415;-87
2023/04/22 06:31:00;;;;;;;8.10;3.80;;;;;;;10.29;100.00;100204.63;106741;1253;74827;-87
2023/04/22 06:33:28;;;;;;;7.90;3.60;;;;;;;10.32;100.00;100206.73;106542;1256;64630;-87
2023/04/22 06:35:55;;;;;;;7.20;3.50;;;;;;;10.36;100.00;100208.71;107126;1254;73012;-88
2023/04/22 06:38:23;;;;;;;5.20;3.50;;;;;;;10.43;100.00;100211.41;107160;1256;62872;-86
2023/04/22 06:41:09;;;;;;;10.60;4.10;;;;;;;10.54;100.00;100211.55;107061;1255;60377;-87
2023/04/22 06:43:39;;;;;;;8.10;3.70;;;;;;;10.65;100.00;100219.24;106576;1254;75085;-87
2023/04/22 06:46:09;;;;;;;9.70;4.40;;;;;;;10.71;100.00;100218.27;106092;1256;63793;-86
2023/04/22 06:48:51;;;;;;;9.30;4.30;;;;;;;10.78;100.00;100220.42;106012;1257;73889;-86
2023/04/22 06:51:37;;;;;;;9.00;3.70;;;;;;;10.91;100.00;100218.86;106071;1253;63061;-86
2023/04/22 06:54:05;;;;;;;3.40;2.90;;;;;;;11.03;100.00;100221.05;106675;1254;61191;-86
2023/04/22 06:56:33;;;;;;;5.50;3.10;;;;;;;11.21;100.00;100216.52;107794;1259;74084;-84
2023/04/22 06:58:59;;;;;;;14.70;4.00;;;;;;;11.56;100.00;100219.13;106439;1254;63782;-87
2023/04/22 07:01:26;;;;;;;7.90;2.70;;;;;;;12.10;100.00;100222.65;106261;1253;73163;-88
2023/04/22 07:03:54;;;;;;;7.80;2.40;;;;;;;12.65;100.00;100221.39;106114;1257;61249;-89
2023/04/22 07:08:36;;;;;;;7.00;2.10;;;;;;;13.28;96.83;100233.80;102807;1294;615072;-89
2023/04/22 07:11:04;;;;;;;9.60;2.20;;;;;;;13.51;94.97;100238.34;105143;1264;61279;-88
2023/04/22 07:13:35;;;;;;;34.20;27.00;;;;;;;13.57;94.09;100238.26;104998;1264;61137;-90
2023/04/22 07:16:02;;;;;;;14.20;9.80;;;;;;;13.46;92.64;100246.85;105209;1264;72138;-88
2023/04/22 07:18:29;;;;;;;16.30;6.60;;;;;;;13.37;92.31;100247.89;105261;1271;63017;-88
2023/04/22 07:20:56;;;;;;;10.20;4.40;;;;;;;13.33;93.10;100249.59;104590;1264;689208;-89
2023/04/22 07:23:23;;;;;;;10.00;6.30;;;;;;;13.30;92.82;100252.28;106509;1257;62698;-88
2023/04/22 07:25:51;;;;;;;7.40;1.80;;;;;;;13.20;91.99;100252.97;107281;1260;61319;-86
2023/04/22 07:28:18;;;;;;;5.60;1.80;;;;;;;13.20;92.54;100256.13;105990;1259;72878;-88
2023/04/22 07:30:45;;;;;;;9.80;2.80;;;;;;;13.25;92.58;100259.13;105880;1260;65270;-86
2023/04/22 07:33:13;;;;;;;5.10;2.30;;;;;;;13.30;91.65;100257.70;105953;1258;73732;-86
2023/04/22 07:35:40;;;;;;;5.10;2.20;;;;;;;13.23;91.01;100259.80;105629;1260;61290;-89
2023/04/22 07:38:07;;;;;;;5.30;2.30;;;;;;;13.14;90.51;100261.20;105692;1258;60068;-86
2023/04/22 07:40:36;;;;;;;6.20;3.10;;;;;;;13.02;90.16;100263.35;105762;1260;73647;-88
2023/04/22 07:43:04;;;;;;;8.90;1.80;;;;;;;12.82;90.32;100265.91;106319;1257;64890;-89
2023/04/22 07:45:32;;;;;;;8.80;2.90;;;;;;;12.59;90.92;100268.48;106875;1260;73620;-85
2023/04/22 07:47:59;;;;;;;3.90;1.80;;;;;;;12.42;91.34;100270.76;106533;1261;62136;-88
2023/04/22 07:50:26;;;;;;;6.80;1.80;;;;;;;12.32;91.90;100275.06;106208;1256;61206;-87
2023/04/22 07:52:53;;;;;;;5.70;1.90;;;;;;;12.22;92.62;100275.89;106352;1260;73954;-87
2023/04/22 07:55:20;;;;;;;5.10;2.00;;;;;;;12.11;92.97;100276.73;106305;1260;64854;-87
2023/04/22 07:58:05;;;;;;;4.40;2.10;;;;;;;12.05;93.61;100281.73;106450;1257;72890;-86
2023/04/22 08:00:33;;;;;;;10.10;2.60;;;;;;;12.04;94.12;100280.02;106695;1260;60378;-85
2023/04/22 08:03:01;;;;;;;6.30;1.50;;;;;;;12.03;94.07;100280.92;107217;1256;61139;-85
2023/04/22 08:05:28;;;;;;;7.50;2.20;;;;;;;12.07;94.61;100284.55;106561;1256;74270;-87
2023/04/22 08:07:56;;;;;;;2.90;1.60;;;;;;;12.11;94.80;100285.48;107019;1257;65100;-87
2023/04/22 08:10:22;;;;;;;3.90;1.50;;;;;;;12.14;94.38;100284.73;107250;1260;73770;-85
2023/04/22 08:12:49;;;;;;;2.40;1.30;;;;;;;12.15;94.05;100290.81;107055;1254;62211;-86
2023/04/22 08:15:17;;;;;;;4.30;1.60;;;;;;;12.09;94.00;100293.16;106713;1260;60079;-86
2023/04/22 08:17:44;;;;;;;7.50;2.10;;;;;;;12.02;94.54;100296.83;106332;1259;74310;-86
2023/04/22 08:20:11;;;;;;;5.50;1.70;;;;;;;11.96;95.09;100296.34;105902;1255;64093;-85
2023/04/22 08:22:39;;;;;;;4.60;1.90;;;;;;;11.83;95.33;100296.92;105978;1254;73591;-89
2023/04/22 08:25:07;;;;;;;8.50;3.00;;;;;;;11.67;95.95;100303.06;106046;1257;63074;-89
2023/04/22 08:27:34;;;;;;;7.70;1.90;;;;;;;11.61;96.80;100303.98;105957;1257;60022;-88
2023/04/22 08:30:01;;;;;;;6.40;1.70;;;;;;;11.62;97.59;100303.59;106068;1254;71827;-87
2023/04/22 08:32:28;;;;;;;3.40;1.60;;;;;;;11.61;97.97;100308.22;105841;1257;64658;-89
2023/04/22 08:34:55;;;;;;;4.70;3.20;;;;;;;11.60;97.65;100307.62;106237;1251;72886;-87
2023/04/22 08:37:31;;;;;;;19.40;10.10;;;;;;;11.57;97.82;100305.70;106496;1254;60717;-85
2023/04/22 08:39:58;;;;;;;8.70;4.30;;;;;;;11.53;97.94;100307.90;106151;1258;60107;-88
2023/04/22 08:42:26;;;;;;;27.00;15.50;;;;;;;11.56;98.31;100309.45;106402;1256;73310;-88
2023/04/22 08:44:53;;;;;;;24.90;16.00;;;;;;;11.65;98.51;100306.41;106024;1256;62326;-86
2023/04/22 08:47:22;;;;;;;8.40;2.20;;;;;;;11.70;98.09;100306.06;106067;1254;72623;-87
2023/04/22 08:49:50;;;;;;;7.90;4.00;;;;;;;11.69;97.15;100312.10;106104;1257;61811;-88
2023/04/22 08:52:17;;;;;;;5.00;2.30;;;;;;;11.64;96.66;100317.48;106513;1256;60205;-87
2023/04/22 08:54:44;;;;;;;9.30;5.10;;;;;;;11.54;96.23;100318.70;106870;1251;72862;-88
2023/04/22 08:57:10;;;;;;;5.10;2.50;;;;;;;11.38;96.23;100322.73;106569;1254;63563;-87
2023/04/22 08:59:37;;;;;;;3.40;1.80;;;;;;;11.24;96.77;100322.98;106702;1256;72397;-88
2023/04/22 09:02:07;;;;;;;3.30;1.80;;;;;;;11.16;96.85;100325.66;106568;1254;61557;-87
2023/04/22 09:04:35;;;;;;;3.70;1.70;;;;;;;11.12;97.24;100326.93;106403;1256;60351;-86
2023/04/22 09:07:02;;;;;;;5.20;2.80;;;;;;;11.11;97.10;100325.98;106381;1254;73280;-89
2023/04/22 09:09:30;;;;;;;5.40;1.40;;;;;;;11.11;97.19;100331.41;106231;1255;63554;-87
2023/04/22 09:11:58;;;;;;;5.10;1.30;;;;;;;11.11;97.59;100332.79;107101;1256;72715;-83
2023/04/22 09:14:25;;;;;;;5.10;1.20;;;;;;;11.11;97.72;100333.33;107714;1251;61827;-84
2023/04/22 09:16:52;;;;;;;5.70;1.30;;;;;;;11.12;98.11;100329.25;107475;1251;60184;-86
2023/04/22 09:19:29;;;;;;;5.40;1.30;;;;;;;11.14;98.26;100332.10;106549;1254;72991;-88
2023/04/22 09:21:58;;;;;;;3.90;1.40;;;;;;;11.17;98.14;100332.94;106188;1257;62645;-87
2023/04/22 09:24:25;;;;;;;5.30;1.10;;;;;;;11.22;97.40;100335.55;105899;1254;71765;-88
2023/04/22 09:26:54;;;;;;;4.40;1.10;;;;;;;11.28;96.34;100339.36;106308;1256;59807;-90
2023/04/22 09:29:21;;;;;;;1.80;0.60;;;;;;;11.33;95.18;100339.73;106367;1254;61313;-86
2023/04/22 09:31:51;;;;;;;2.60;1.10;;;;;;;11.34;94.43;100343.48;106307;1257;74018;-89
2023/04/22 09:34:18;;;;;;;2.50;1.00;;;;;;;11.38;93.85;100345.84;106507;1251;64302;-85
2023/04/22 09:36:45;;;;;;;4.20;0.90;;;;;;;11.42;93.57;100346.81;106101;1257;72579;-89
2023/04/22 09:39:13;;;;;;;2.80;1.20;;;;;;;11.39;93.42;100346.48;106390;1251;61416;-85
2023/04/22 09:41:40;;;;;;;1.60;0.70;;;;;;;11.31;92.93;100348.61;106346;1251;61141;-87
2023/04/22 09:44:15;;;;;;;4.60;0.90;;;;;;;11.23;93.48;100352.63;106189;1255;73687;-86
2023/04/22 09:46:42;;;;;;;2.40;1.00;;;;;;;11.14;93.71;100355.17;106226;1254;64510;-88
2023/04/22 09:49:09;;;;;;;4.30;1.30;;;;;;;11.12;94.26;100360.71;106087;1251;73573;-85
2023/04/22 09:51:39;;;;;;;3.70;0.90;;;;;;;11.15;94.55;100361.79;106278;1256;60183;-88
2023/04/22 09:54:10;;;;;;;4.50;0.90;;;;;;;11.24;94.81;100358.17;106175;1256;60825;-88
2023/04/22 09:56:50;;;;;;;3.70;1.00;;;;;;;11.37;95.07;100357.30;106141;1254;74306;-87
2023/04/22 09:59:25;;;;;;;1.90;1.40;;;;;;;11.57;94.94;100361.17;106398;1254;64134;-88
2023/04/22 10:01:54;;;;;;;3.60;0.60;;;;;;;11.84;94.54;100359.56;106947;1253;74433;-88
2023/04/22 10:04:24;;;;;;;3.90;1.20;;;;;;;12.07;93.29;100358.98;106855;1251;61929;-86
2023/04/22 10:06:52;;;;;;;9.10;1.50;;;;;;;12.31;92.76;100358.34;107681;1254;59757;-86
2023/04/22 10:09:21;;;;;;;3.10;1.00;;;;;;;12.51;91.26;100356.73;106843;1256;74021;-89
2023/04/22 10:11:50;;;;;;;2.90;1.10;;;;;;;12.66;90.39;100355.63;106225;1251;63833;-90
2023/04/22 10:14:17;;;;;;;2.70;1.20;;;;;;;12.90;89.09;100358.96;106260;1251;73610;-90
2023/04/22 10:16:45;;;;;;;2.40;0.80;;;;;;;13.41;87.34;100355.06;106252;1258;60423;-86
2023/04/22 10:19:19;;;;;;;12.00;8.00;;;;;;;13.96;86.13;100359.35;106446;1253;60405;-86
2023/04/22 10:21:48;;;;;;;20.90;14.60;;;;;;;14.48;83.27;100364.61;107596;1255;74028;-87
2023/04/22 10:24:17;;;;;;;24.00;16.50;;;;;;;14.76;79.52;100366.41;108062;1253;65208;-87
2023/04/22 10:26:56;;;;;;;8.60;1.80;;;;;;;14.82;76.59;100366.83;106222;1254;73338;-88
2023/04/22 10:29:24;;;;;;;3.10;1.60;;;;;;;14.80;74.48;100370.29;106689;1253;60057;-90
2023/04/22 10:32:03;;;;;;;4.60;1.20;;;;;;;14.71;73.65;100368.01;106574;1254;61172;-88
2023/04/22 10:34:33;;;;;;;4.20;1.70;;;;;;;14.60;74.13;100372.46;106561;1252;73012;-88
2023/04/22 10:37:06;;;;;;;3.50;1.60;;;;;;;14.55;75.14;100372.51;106262;1255;64538;-90
2023/04/22 10:39:33;;;;;;;3.40;1.60;;;;;;;14.47;74.75;100374.67;106267;1253;72631;-88
2023/04/22 10:42:06;;;;;;;6.50;1.60;;;;;;;14.48;74.33;100376.60;106829;1254;61374;-90
2023/04/22 10:44:54;;;;;;;3.70;0.90;;;;;;;14.70;74.64;100371.86;108310;1254;61658;-89
2023/04/22 10:47:34;;;;;;;4.10;0.90;;;;;;;15.05;74.59;100372.52;106992;1254;73817;-88
2023/04/22 10:50:25;;;;;;;2.50;0.80;;;;;;;15.35;74.26;100375.09;106693;1256;63611;-88
2023/04/22 10:53:01;;;;;;;5.50;2.90;;;;;;;15.57;73.01;100377.66;106936;1254;73649;-89
2023/04/22 10:55:56;;;;;;;4.20;1.30;;;;;;;15.56;69.26;100381.45;106612;1251;60059;-88
2023/04/22 10:58:23;;;;;;;4.20;1.80;;;;;;;15.42;68.01;100379.49;106682;1251;60370;-88
2023/04/22 11:00:58;;;;;;;2.80;1.30;;;;;;;15.30;68.38;100378.15;106842;1251;72315;-86
2023/04/22 11:03:28;;;;;;;2.50;0.90;;;;;;;15.17;69.21;100382.22;106943;1251;63448;-86
2023/04/22 11:06:16;;;;;;;2.40;1.20;;;;;;;15.12;70.78;100376.15;107351;1251;74595;-87
2023/04/22 11:08:45;;;;;;;3.50;1.00;;;;;;;15.15;70.86;100375.02;107666;1251;61297;-85
2023/04/22 11:11:13;;;;;;;2.70;0.90;;;;;;;15.16;70.49;100370.67;108483;1251;60303;-88
2023/04/22 11:13:44;;;;;;;5.50;1.90;;;;;;;15.13;70.73;100372.85;107931;1251;73015;-86
2023/04/22 11:16:11;;;;;;;4.20;1.50;;;;;;;15.09;70.07;100375.86;106785;1251;63823;-89
2023/04/22 11:18:39;;;;;;;5.70;1.20;;;;;;;14.96;66.91;100376.02;107834;1251;73170;-86
2023/04/22 11:21:07;;;;;;;4.10;1.10;;;;;;;14.92;67.84;100380.20;107233;1251;60491;-88
2023/04/22 11:23:35;;;;;;;1.30;1.20;;;;;;;15.01;69.15;100374.72;107184;1257;61115;-89